createdAt,value
2017-12-28T00:01:23.952Z,2.12
2017-12-28T00:03:53.036Z,2.17
2017-12-28T00:06:21.463Z,2.13
2017-12-28T00:08:49.864Z,2.02
2017-12-28T00:11:18.181Z,2.03
2017-12-28T00:13:47.268Z,2.10
2017-12-28T00:16:16.418Z,2.24
2017-12-28T00:18:44.806Z,2.31
2017-12-28T00:21:13.131Z,2.31
2017-12-28T00:23:42.264Z,2.37
2017-12-28T00:26:10.586Z,2.39
2017-12-28T00:28:38.908Z,2.43
2017-12-28T00:31:07.261Z,2.42
2017-12-28T00:33:36.339Z,2.38
2017-12-28T00:36:04.690Z,2.30
2017-12-28T00:38:33.021Z,2.18
2017-12-28T00:41:01.367Z,2.14
2017-12-28T00:43:29.702Z,2.01
2017-12-28T00:45:58.030Z,1.99
2017-12-28T00:48:27.139Z,1.95
2017-12-28T00:50:56.257Z,1.77
2017-12-28T00:53:24.568Z,1.83
2017-12-28T00:55:52.925Z,1.90
2017-12-28T00:58:21.310Z,1.91
2017-12-28T01:00:49.653Z,1.97
2017-12-28T01:03:17.971Z,1.93
2017-12-28T01:05:46.324Z,1.96
2017-12-28T01:08:14.661Z,1.95
2017-12-28T01:10:43.772Z,2.02
2017-12-28T01:13:12.881Z,2.05
2017-12-28T01:15:41.210Z,1.99
2017-12-28T01:18:09.583Z,1.99
2017-12-28T01:20:37.928Z,1.93
2017-12-28T01:23:06.295Z,1.98
2017-12-28T01:25:34.635Z,1.97
2017-12-28T01:28:03.749Z,1.99
2017-12-28T01:30:32.860Z,1.94
2017-12-28T01:33:01.178Z,1.92
2017-12-28T01:35:29.501Z,1.88
2017-12-28T01:37:57.842Z,1.80
2017-12-28T01:40:26.151Z,1.77
2017-12-28T01:42:55.255Z,1.77
2017-12-28T01:45:23.589Z,1.77
2017-12-28T01:48:02.755Z,1.66
2017-12-28T01:50:31.100Z,1.70
2017-12-28T01:52:59.416Z,1.58
2017-12-28T01:55:28.527Z,1.49
2017-12-28T01:57:56.845Z,1.53
2017-12-28T02:00:25.171Z,1.52
2017-12-28T02:02:53.523Z,1.54
2017-12-28T02:05:22.637Z,1.54
2017-12-28T02:07:50.982Z,1.55
2017-12-28T02:10:19.293Z,1.52
2017-12-28T02:12:47.655Z,1.57
2017-12-28T02:15:16.759Z,1.53
2017-12-28T02:17:45.865Z,1.58
2017-12-28T02:20:14.230Z,1.58
2017-12-28T02:22:43.312Z,1.53
2017-12-28T02:25:12.388Z,1.51
2017-12-28T02:27:40.739Z,1.41
2017-12-28T02:30:09.058Z,1.35
2017-12-28T02:32:37.398Z,1.36
2017-12-28T02:35:05.735Z,1.39
2017-12-28T02:37:34.064Z,1.41
2017-12-28T02:40:02.412Z,1.38
2017-12-28T02:42:30.735Z,1.33
2017-12-28T02:44:59.052Z,1.34
2017-12-28T02:47:27.415Z,1.32
2017-12-28T02:49:55.735Z,1.32
2017-12-28T02:52:24.072Z,1.21
2017-12-28T02:54:53.175Z,1.20
2017-12-28T02:57:21.495Z,1.31
2017-12-28T02:59:49.819Z,1.39
2017-12-28T03:02:18.175Z,1.41
2017-12-28T03:04:46.484Z,1.48
2017-12-28T03:07:15.563Z,1.60
2017-12-28T03:09:44.654Z,1.57
2017-12-28T03:12:13.728Z,1.68
2017-12-28T03:14:42.064Z,1.63
2017-12-28T03:17:10.385Z,1.63
2017-12-28T03:19:38.707Z,1.68
2017-12-28T03:22:07.051Z,1.74
2017-12-28T03:24:36.161Z,1.79
2017-12-28T03:27:05.267Z,1.77
2017-12-28T03:29:33.618Z,1.73
2017-12-28T03:32:01.941Z,1.78
2017-12-28T03:34:30.268Z,1.55
2017-12-28T03:36:58.592Z,1.44
2017-12-28T03:39:26.947Z,1.41
2017-12-28T03:41:56.035Z,1.41
2017-12-28T03:44:24.387Z,1.30
2017-12-28T03:46:52.727Z,1.20
2017-12-28T03:49:21.044Z,1.30
2017-12-28T03:51:49.379Z,1.37
2017-12-28T03:54:17.718Z,1.53
2017-12-28T03:56:46.814Z,1.68
2017-12-28T03:59:15.937Z,1.80
2017-12-28T04:01:44.248Z,1.97
2017-12-28T04:04:12.591Z,2.10
2017-12-28T04:06:40.949Z,2.14
2017-12-28T04:09:10.032Z,2.16
2017-12-28T04:11:39.119Z,2.28
2017-12-28T04:14:08.242Z,2.18
2017-12-28T04:16:36.565Z,2.19
2017-12-28T04:19:04.872Z,2.08
2017-12-28T04:21:33.228Z,2.17
2017-12-28T04:24:01.557Z,2.07
2017-12-28T04:26:29.932Z,2.02
2017-12-28T04:28:58.279Z,1.99
2017-12-28T04:31:26.599Z,1.96
2017-12-28T04:33:54.924Z,1.88
2017-12-28T04:36:23.283Z,1.96
2017-12-28T04:38:51.633Z,1.86
2017-12-28T04:41:19.984Z,1.91
2017-12-28T04:43:48.307Z,1.99
2017-12-28T04:46:16.628Z,2.06
2017-12-28T04:48:45.745Z,2.12
2017-12-28T04:51:14.066Z,2.10
2017-12-28T04:53:42.379Z,2.18
2017-12-28T04:56:11.532Z,2.17
2017-12-28T04:58:39.855Z,2.22
2017-12-28T05:01:08.963Z,2.36
2017-12-28T05:03:37.327Z,2.48
2017-12-28T05:06:06.429Z,2.59
2017-12-28T05:08:34.733Z,2.65
2017-12-28T05:11:03.083Z,2.67
2017-12-28T05:13:31.416Z,2.71
2017-12-28T05:15:59.767Z,2.85
2017-12-28T05:18:28.093Z,3.05
2017-12-28T05:20:56.436Z,3.23
2017-12-28T05:23:24.797Z,3.30
2017-12-28T05:25:53.120Z,3.41
2017-12-28T05:28:21.444Z,3.44
2017-12-28T05:30:49.776Z,3.54
2017-12-28T05:33:18.143Z,3.59
2017-12-28T05:35:46.512Z,3.77
2017-12-28T05:38:14.839Z,3.87
2017-12-28T05:40:43.192Z,3.87
2017-12-28T05:43:11.525Z,4.01
2017-12-28T05:45:39.885Z,4.14
2017-12-28T05:48:08.275Z,4.24
2017-12-28T05:50:36.616Z,4.23
2017-12-28T05:53:05.717Z,4.26
2017-12-28T05:55:34.121Z,4.22
2017-12-28T05:58:02.445Z,4.13
2017-12-28T06:00:30.776Z,4.07
2017-12-28T06:02:59.114Z,3.96
2017-12-28T06:05:28.251Z,3.90
2017-12-28T06:07:56.649Z,3.92
2017-12-28T06:10:25.003Z,3.93
2017-12-28T06:12:53.329Z,3.98
2017-12-28T06:15:21.650Z,4.05
2017-12-28T06:17:50.021Z,4.04
2017-12-28T06:20:18.373Z,3.98
2017-12-28T06:22:46.731Z,4.01
2017-12-28T06:25:15.094Z,4.09
2017-12-28T06:27:43.450Z,4.12
2017-12-28T06:30:11.759Z,4.02
2017-12-28T06:32:40.082Z,4.08
2017-12-28T06:35:08.446Z,4.10
2017-12-28T06:37:37.541Z,4.07
2017-12-28T06:40:06.655Z,4.14
2017-12-28T06:42:35.016Z,4.11
2017-12-28T06:45:04.198Z,4.12
2017-12-28T06:47:33.304Z,4.17
2017-12-28T06:50:02.427Z,4.17
2017-12-28T06:52:30.743Z,4.11
2017-12-28T06:54:59.083Z,4.17
2017-12-28T07:00:02.191Z,4.19
2017-12-28T07:02:30.514Z,4.24
2017-12-28T07:04:58.848Z,4.15
2017-12-28T07:07:27.177Z,4.24
2017-12-28T07:09:55.500Z,4.16
2017-12-28T07:12:23.825Z,4.22
2017-12-28T07:14:52.151Z,4.11
2017-12-28T07:17:20.460Z,4.03
2017-12-28T07:19:48.800Z,4.00
2017-12-28T07:22:17.140Z,4.05
2017-12-28T07:24:45.502Z,4.02
2017-12-28T07:27:13.841Z,4.07
2017-12-28T07:29:42.199Z,4.05
2017-12-28T07:32:10.516Z,4.00
2017-12-28T07:34:38.822Z,4.00
2017-12-28T07:37:07.176Z,3.94
2017-12-28T07:39:35.515Z,3.95
2017-12-28T07:42:03.832Z,3.93
2017-12-28T07:44:32.167Z,3.95
2017-12-28T07:47:00.527Z,3.99
2017-12-28T07:49:29.626Z,4.10
2017-12-28T07:51:58.737Z,4.14
2017-12-28T07:54:27.062Z,4.23
2017-12-28T07:56:55.412Z,4.28
2017-12-28T07:59:23.755Z,4.26
2017-12-28T08:01:52.865Z,4.10
2017-12-28T08:04:21.243Z,4.14
2017-12-28T08:06:49.595Z,4.02
2017-12-28T08:09:18.687Z,4.20
2017-12-28T08:11:47.094Z,4.15
2017-12-28T08:14:15.427Z,4.10
2017-12-28T08:16:43.767Z,4.01
2017-12-28T08:19:12.136Z,4.02
2017-12-28T08:21:40.478Z,4.08
2017-12-28T08:24:09.581Z,4.07
2017-12-28T08:26:38.668Z,4.13
2017-12-28T08:29:07.780Z,4.08
2017-12-28T08:31:36.143Z,4.16
2017-12-28T08:34:04.495Z,4.16
2017-12-28T08:36:32.886Z,4.31
2017-12-28T08:39:01.237Z,4.13
2017-12-28T08:41:29.965Z,4.16
2017-12-28T08:43:59.067Z,4.16
2017-12-28T08:46:27.423Z,4.24
2017-12-28T08:48:55.788Z,4.31
2017-12-28T08:51:24.102Z,4.15
2017-12-28T08:53:53.217Z,4.27
2017-12-28T08:56:21.568Z,4.12
2017-12-28T08:58:50.672Z,4.16
2017-12-28T09:01:19.755Z,4.32
2017-12-28T09:03:48.963Z,4.41
2017-12-28T09:06:18.048Z,4.47
2017-12-28T09:08:47.139Z,4.64
2017-12-28T09:11:15.488Z,4.51
2017-12-28T09:13:43.809Z,4.55
2017-12-28T09:16:12.898Z,4.54
2017-12-28T09:18:43.494Z,4.65
2017-12-28T09:21:11.823Z,4.91
2017-12-28T09:23:40.172Z,4.78
2017-12-28T09:26:09.290Z,4.73
2017-12-28T09:28:37.625Z,4.63
2017-12-28T09:31:05.937Z,4.72
2017-12-28T09:33:35.059Z,4.76
2017-12-28T09:36:03.378Z,4.80
2017-12-28T09:38:31.712Z,4.68
2017-12-28T09:41:00.045Z,4.73
2017-12-28T09:43:29.165Z,4.73
2017-12-28T09:45:57.507Z,4.89
2017-12-28T09:48:25.846Z,4.79
2017-12-28T09:50:54.189Z,4.86
2017-12-28T09:53:22.527Z,4.76
2017-12-28T09:55:51.617Z,4.79
2017-12-28T09:58:19.968Z,4.78
2017-12-28T10:00:48.307Z,4.89
2017-12-28T10:03:16.651Z,5.15
2017-12-28T10:05:45.012Z,5.06
2017-12-28T10:08:13.330Z,5.10
2017-12-28T10:10:41.667Z,5.03
2017-12-28T10:13:10.044Z,5.20
2017-12-28T10:15:38.386Z,5.34
2017-12-28T10:18:06.712Z,5.23
2017-12-28T10:20:35.071Z,5.33
2017-12-28T10:23:03.433Z,5.24
2017-12-28T10:25:31.777Z,5.32
2017-12-28T10:28:00.974Z,5.42
2017-12-28T10:30:29.367Z,5.29
2017-12-28T10:32:58.454Z,5.25
2017-12-28T10:35:27.584Z,5.12
2017-12-28T10:37:55.907Z,4.96
2017-12-28T10:40:24.245Z,5.27
2017-12-28T10:42:52.638Z,5.35
2017-12-28T10:45:20.972Z,5.15
2017-12-28T10:47:49.340Z,5.30
2017-12-28T10:50:18.448Z,5.19
2017-12-28T10:52:46.777Z,5.29
2017-12-28T10:55:15.159Z,5.26
2017-12-28T10:57:43.511Z,5.15
2017-12-28T11:00:11.827Z,5.12
2017-12-28T11:02:40.194Z,5.27
2017-12-28T11:05:08.550Z,5.21
2017-12-28T11:07:36.872Z,5.24
2017-12-28T11:10:05.963Z,5.30
2017-12-28T11:12:35.105Z,5.24
2017-12-28T11:15:03.445Z,5.20
2017-12-28T11:17:32.530Z,5.19
2017-12-28T11:20:01.653Z,5.19
2017-12-28T11:22:29.982Z,5.32
2017-12-28T11:24:58.324Z,5.30
2017-12-28T11:27:26.639Z,5.48
2017-12-28T11:29:54.960Z,5.24
2017-12-28T11:32:23.300Z,5.25
2017-12-28T11:34:51.692Z,5.35
2017-12-28T11:37:20.007Z,5.19
2017-12-28T11:39:48.355Z,5.27
2017-12-28T11:42:17.473Z,5.47
2017-12-28T11:44:45.803Z,5.35
2017-12-28T11:47:14.197Z,5.34
2017-12-28T11:49:43.304Z,5.46
2017-12-28T11:52:17.884Z,5.58
2017-12-28T11:54:46.219Z,5.55
2017-12-28T11:57:14.557Z,5.54
2017-12-28T11:59:48.839Z,5.57
2017-12-28T12:02:23.479Z,5.73
2017-12-28T12:04:51.852Z,5.63
2017-12-28T12:07:20.176Z,5.72
2017-12-28T12:09:49.266Z,5.84
2017-12-28T12:12:18.375Z,5.71
2017-12-28T12:14:46.716Z,5.62
2017-12-28T12:17:15.055Z,5.81
2017-12-28T12:19:43.407Z,5.72
2017-12-28T12:22:12.504Z,5.77
2017-12-28T12:24:41.590Z,5.73
2017-12-28T12:27:10.695Z,5.61
2017-12-28T12:29:40.516Z,5.77
2017-12-28T12:32:08.878Z,5.78
2017-12-28T12:34:38.006Z,5.85
2017-12-28T12:37:06.340Z,5.82
2017-12-28T12:39:35.461Z,5.68
2017-12-28T12:42:03.779Z,5.66
2017-12-28T12:44:32.122Z,5.66
2017-12-28T12:47:00.470Z,5.66
2017-12-28T12:49:29.557Z,5.70
2017-12-28T12:51:58.659Z,5.69
2017-12-28T12:54:27.794Z,5.80
2017-12-28T12:56:56.173Z,5.80
2017-12-28T12:59:24.495Z,5.83
2017-12-28T13:01:52.818Z,5.84
2017-12-28T13:04:21.171Z,5.73
2017-12-28T13:06:50.251Z,5.68
2017-12-28T13:09:19.395Z,5.64
2017-12-28T13:11:47.743Z,5.59
2017-12-28T13:14:16.907Z,5.58
2017-12-28T13:16:45.245Z,5.58
2017-12-28T13:19:13.590Z,5.51
2017-12-28T13:21:42.676Z,5.46
2017-12-28T13:24:11.768Z,5.39
2017-12-28T13:26:40.902Z,5.51
2017-12-28T13:29:09.442Z,5.50
2017-12-28T13:31:37.784Z,5.50
2017-12-28T13:34:06.153Z,5.46
2017-12-28T13:36:34.469Z,5.63
2017-12-28T13:39:02.802Z,5.87
2017-12-28T13:41:31.165Z,5.70
2017-12-28T13:43:59.479Z,5.65
2017-12-28T13:46:27.805Z,5.51
2017-12-28T13:48:56.935Z,5.49
2017-12-28T13:51:25.260Z,5.42
2017-12-28T13:53:54.363Z,5.36
2017-12-28T13:56:23.520Z,5.21
2017-12-28T13:58:51.838Z,5.27
2017-12-28T14:01:20.928Z,5.30
2017-12-28T14:06:25.493Z,5.13
2017-12-28T14:08:53.843Z,5.15
2017-12-28T14:11:22.985Z,5.13
2017-12-28T14:13:51.364Z,5.15
2017-12-28T14:16:19.712Z,5.09
2017-12-28T14:18:48.793Z,5.11
2017-12-28T14:21:17.928Z,5.04
2017-12-28T14:23:46.275Z,5.00
2017-12-28T14:26:15.366Z,5.01
2017-12-28T14:28:44.516Z,4.90
2017-12-28T14:31:12.865Z,5.75
2017-12-28T14:33:41.183Z,5.45
2017-12-28T14:36:09.540Z,5.05
2017-12-28T14:38:37.873Z,4.85
2017-12-28T14:41:06.204Z,4.74
2017-12-28T14:43:34.553Z,4.66
2017-12-28T14:46:02.875Z,4.59
2017-12-28T14:48:31.226Z,4.53
2017-12-28T14:50:59.568Z,4.45
2017-12-28T14:53:27.943Z,4.46
2017-12-28T14:55:57.067Z,4.47
2017-12-28T14:58:25.425Z,4.55
2017-12-28T15:00:53.763Z,4.56
2017-12-28T15:03:22.168Z,4.51
2017-12-28T15:05:50.483Z,4.44
2017-12-28T15:08:18.810Z,4.36
2017-12-28T15:10:47.192Z,4.29
2017-12-28T15:13:16.307Z,4.35
2017-12-28T15:15:44.649Z,4.25
2017-12-28T15:18:13.025Z,4.14
2017-12-28T15:20:41.383Z,4.13
2017-12-28T15:23:09.726Z,4.01
2017-12-28T15:25:38.218Z,3.91
2017-12-28T15:28:06.586Z,3.89
2017-12-28T15:30:34.998Z,3.87
2017-12-28T15:33:03.471Z,3.84
2017-12-28T15:35:31.820Z,3.79
2017-12-28T15:38:00.264Z,3.76
2017-12-28T15:40:28.614Z,3.67
2017-12-28T15:42:57.013Z,3.61
2017-12-28T15:45:25.350Z,3.63
2017-12-28T15:47:53.707Z,3.65
2017-12-28T15:50:22.110Z,3.65
2017-12-28T15:52:50.530Z,3.63
2017-12-28T15:55:18.928Z,3.63
2017-12-28T15:57:49.690Z,3.61
2017-12-28T16:00:18.079Z,3.67
2017-12-28T16:02:46.436Z,3.72
2017-12-28T16:05:14.769Z,3.62
2017-12-28T16:07:43.141Z,3.55
2017-12-28T16:10:11.469Z,3.46
2017-12-28T16:12:39.821Z,3.44
2017-12-28T16:15:08.172Z,3.44
2017-12-28T16:17:36.506Z,3.36
2017-12-28T16:20:05.530Z,3.42
2017-12-28T16:22:33.910Z,3.32
2017-12-28T16:25:02.260Z,3.26
2017-12-28T16:27:30.597Z,3.15
2017-12-28T16:29:58.948Z,3.03
2017-12-28T16:32:27.272Z,2.95
2017-12-28T16:34:55.605Z,2.84
2017-12-28T16:37:23.951Z,2.79
2017-12-28T16:39:52.289Z,2.82
2017-12-28T16:42:20.618Z,2.81
2017-12-28T16:44:49.016Z,2.80
2017-12-28T16:47:17.362Z,2.73
2017-12-28T16:49:45.687Z,2.69
2017-12-28T16:52:14.042Z,2.65
2017-12-28T16:54:42.396Z,2.60
2017-12-28T16:57:10.745Z,2.58
2017-12-28T16:59:39.085Z,2.51
2017-12-28T17:02:07.479Z,2.48
2017-12-28T17:04:35.830Z,2.50
2017-12-28T17:07:04.157Z,2.42
2017-12-28T17:09:32.507Z,2.43
2017-12-28T17:12:01.672Z,2.42
2017-12-28T17:14:30.768Z,2.35
2017-12-28T17:16:59.141Z,2.31
2017-12-28T17:19:27.473Z,2.31
2017-12-28T17:21:55.820Z,2.22
2017-12-28T17:24:24.194Z,2.23
2017-12-28T17:26:52.622Z,2.12
2017-12-28T17:29:20.986Z,2.01
2017-12-28T17:31:50.103Z,2.06
2017-12-28T17:34:18.435Z,2.04
2017-12-28T17:36:46.779Z,2.03
2017-12-28T17:39:15.132Z,2.13
2017-12-28T17:41:43.525Z,2.11
2017-12-28T17:44:11.868Z,2.10
2017-12-28T17:46:40.971Z,2.06
2017-12-28T17:49:10.103Z,2.09
2017-12-28T17:51:38.484Z,2.14
2017-12-28T17:54:06.794Z,2.13
2017-12-28T17:56:35.203Z,2.12
2017-12-28T17:59:03.565Z,2.15
2017-12-28T18:01:32.677Z,2.20
2017-12-28T18:04:01.009Z,2.28
2017-12-28T18:06:29.342Z,2.28
2017-12-28T18:08:57.650Z,2.25
2017-12-28T18:11:25.973Z,2.29
2017-12-28T18:13:55.109Z,2.37
2017-12-28T18:16:23.460Z,2.44
2017-12-28T18:18:52.536Z,2.48
2017-12-28T18:21:21.688Z,2.50
2017-12-28T18:23:50.019Z,2.48
2017-12-28T18:26:19.104Z,2.41
2017-12-28T18:28:48.268Z,2.43
2017-12-28T18:31:16.589Z,2.40
2017-12-28T18:33:45.676Z,2.54
2017-12-28T18:36:14.867Z,2.44
2017-12-28T18:38:43.956Z,2.41
2017-12-28T18:41:12.280Z,2.44
2017-12-28T18:43:40.699Z,2.46
2017-12-28T18:46:09.024Z,2.45
2017-12-28T18:48:37.391Z,2.49
2017-12-28T18:51:06.533Z,2.43
2017-12-28T18:53:34.860Z,2.41
2017-12-28T18:56:04.010Z,2.40
2017-12-28T18:58:32.351Z,2.41
2017-12-28T19:01:00.690Z,2.47
2017-12-28T19:03:29.025Z,2.42
2017-12-28T19:05:57.408Z,2.44
2017-12-28T19:08:26.467Z,2.38
2017-12-28T19:10:54.859Z,2.38
2017-12-28T19:13:23.224Z,2.39
2017-12-28T19:15:51.563Z,2.42
2017-12-28T19:18:19.926Z,2.41
2017-12-28T19:20:48.269Z,2.39
2017-12-28T19:23:16.765Z,2.37
2017-12-28T19:25:45.113Z,2.40
2017-12-28T19:28:13.465Z,2.39
2017-12-28T19:30:41.810Z,2.34
2017-12-28T19:33:10.168Z,2.28
2017-12-28T19:35:38.487Z,2.20
2017-12-28T19:38:06.825Z,2.15
2017-12-28T19:40:35.187Z,2.17
2017-12-28T19:43:03.532Z,2.14
2017-12-28T19:45:33.299Z,2.16
2017-12-28T19:48:01.667Z,2.15
2017-12-28T19:50:30.011Z,2.21
2017-12-28T19:52:59.261Z,2.23
2017-12-28T19:55:27.616Z,2.19
2017-12-28T19:57:55.972Z,2.19
2017-12-28T20:00:25.103Z,2.14
2017-12-28T20:02:53.516Z,2.07
2017-12-28T20:05:21.897Z,2.11
2017-12-28T20:07:50.318Z,2.14
2017-12-28T20:10:18.768Z,2.14
2017-12-28T20:12:47.859Z,2.14
2017-12-28T20:15:16.191Z,2.14
2017-12-28T20:17:44.556Z,2.14
2017-12-28T20:20:12.879Z,2.03
2017-12-28T20:22:42.018Z,1.99
2017-12-28T20:25:10.367Z,1.99
2017-12-28T20:27:38.700Z,1.94
2017-12-28T20:30:07.045Z,1.85
2017-12-28T20:32:35.394Z,1.75
2017-12-28T20:35:03.755Z,1.77
2017-12-28T20:37:32.096Z,1.74
2017-12-28T20:40:00.541Z,1.71
2017-12-28T20:42:29.639Z,1.72
2017-12-28T20:44:57.968Z,1.76
2017-12-28T20:47:26.349Z,1.71
2017-12-28T20:49:54.674Z,1.76
2017-12-28T20:52:23.815Z,1.77
2017-12-28T20:54:52.186Z,1.77
2017-12-28T20:57:20.534Z,1.76
2017-12-28T20:59:48.861Z,1.79
2017-12-28T21:02:17.997Z,1.82
2017-12-28T21:04:47.099Z,1.85
2017-12-28T21:07:15.490Z,1.88
2017-12-28T21:09:43.823Z,1.87
2017-12-28T21:12:15.291Z,1.87
2017-12-28T21:14:44.479Z,1.85
2017-12-28T21:17:12.791Z,1.82
2017-12-28T21:19:41.156Z,1.91
2017-12-28T21:22:10.334Z,1.93
2017-12-28T21:24:39.446Z,1.84
2017-12-28T21:27:08.550Z,1.85
2017-12-28T21:29:36.922Z,1.73
2017-12-28T21:32:06.056Z,1.72
2017-12-28T21:34:34.391Z,1.67
2017-12-28T21:37:03.523Z,1.70
2017-12-28T21:39:31.856Z,1.76
2017-12-28T21:42:00.980Z,1.74
2017-12-28T21:44:29.347Z,1.75
2017-12-28T21:46:58.444Z,1.76
2017-12-28T21:49:26.858Z,1.85
2017-12-28T21:51:55.289Z,1.92
2017-12-28T21:54:24.429Z,1.92
2017-12-28T21:56:52.787Z,1.93
2017-12-28T21:59:21.135Z,1.87
2017-12-28T22:01:50.223Z,1.88
2017-12-28T22:04:19.412Z,1.85
2017-12-28T22:06:48.531Z,1.78
2017-12-28T22:09:17.650Z,1.70
2017-12-28T22:11:46.012Z,1.70
2017-12-28T22:14:15.119Z,1.69
2017-12-28T22:16:43.520Z,1.65
2017-12-28T22:19:11.885Z,1.67
2017-12-28T22:21:40.206Z,1.69
2017-12-28T22:24:08.520Z,1.75
2017-12-28T22:26:37.860Z,1.76
2017-12-28T22:29:06.192Z,1.69
2017-12-28T22:31:35.296Z,1.66
2017-12-28T22:34:03.668Z,1.67
2017-12-28T22:36:32.004Z,1.70
2017-12-28T22:39:00.328Z,1.72
2017-12-28T22:41:28.683Z,1.69
2017-12-28T22:43:57.827Z,1.63
2017-12-28T22:46:26.153Z,1.68
2017-12-28T22:48:54.533Z,1.65
2017-12-28T22:51:23.625Z,1.68
2017-12-28T22:53:51.971Z,1.72
2017-12-28T22:56:20.319Z,1.64
2017-12-28T22:58:48.708Z,1.60
2017-12-28T23:01:17.217Z,1.56
2017-12-28T23:03:45.658Z,1.58
2017-12-28T23:06:14.102Z,1.51
2017-12-28T23:08:43.213Z,1.51
2017-12-28T23:11:12.342Z,1.63
2017-12-28T23:13:40.679Z,1.67
2017-12-28T23:16:09.771Z,1.69
2017-12-28T23:18:38.219Z,1.77
2017-12-28T23:21:06.566Z,1.82
2017-12-28T23:23:34.891Z,1.84
2017-12-28T23:26:03.257Z,1.90
2017-12-28T23:28:32.628Z,1.96
2017-12-28T23:31:00.986Z,1.98
2017-12-28T23:33:29.315Z,1.99
2017-12-28T23:35:57.647Z,2.00
2017-12-28T23:38:26.646Z,1.99
2017-12-28T23:40:54.986Z,1.99
2017-12-28T23:43:24.118Z,2.07
2017-12-28T23:45:52.658Z,2.07
2017-12-28T23:48:21.012Z,2.11
2017-12-28T23:50:49.331Z,2.11
2017-12-28T23:53:17.650Z,2.05
2017-12-28T23:55:46.049Z,1.99
2017-12-28T23:58:14.383Z,2.01
